D/T METAR WX W/DIR W/SPE G/SPE TEMP DEWP
9/12/19 11:50 EGOM 091150Z 31012KT CAVOK 04/M01 Q1011 BLU NW (310°) 13.8mph 4°C -1°C
9/12/19 10:50 EGOM 091050Z 30015KT CAVOK 03/M01 Q1010 BLU WNW (300°) 17.3mph 3°C -1°C
9/12/19 09:50 EGOM 090950Z 33016KT CAVOK 03/M01 Q1008 BLU NNW (330°) 18.4mph 3°C -1°C
9/12/19 08:58 EGOM 090858Z 32013KT CAVOK 02/M01 Q1006 BLU NW (320°) 15.0mph 2°C -1°C
9/12/19 07:50 EGOM 090750Z AUTO 31012KT 9999 NCD 02/M00 Q1004 NW (310°) 13.8mph 2°C 0°C
9/12/19 06:50 EGOM 090650Z AUTO 32015KT 9999 NCD 03/M00 Q1001 NW (320°) 17.3mph 3°C 0°C
9/12/19 05:50 EGOM 090550Z AUTO 33016KT 9999 FEW100/// 03/00 Q0998 NNW (330°) 18.4mph 3°C 0°C
9/12/19 04:50 EGOM 090450Z AUTO 34019KT 9999 BKN140/// 04/01 Q0995 NNW (340°) 21.9mph 4°C 1°C
9/12/19 03:50 EGOM 090350Z AUTO 32018KT 9999 SCT026/// SCT032/// BKN080/// 04/02 Q0992 NW (320°) 20.7mph 4°C 2°C
9/12/19 02:50 EGOM 090250Z AUTO 29011KT 9999 BKN080/// 03/03 Q0990 WNW (290°) 12.7mph 3°C 3°C
9/12/19 01:50 EGOM 090150Z AUTO 29012KT 9999 BKN019/// 03/03 Q0987 WNW (290°) 13.8mph 3°C 3°C
9/12/19 00:50 EGOM 090050Z AUTO 28014KT 9999 BKN006/// 04/03 Q0984 REDZ W (280°) 16.1mph 4°C 3°C
8/12/19 23:50 EGOM 082350Z AUTO 26014KT 9999 -DZ SCT005/// BKN027/// 04/04 Q0983 -DZ W (260°) 16.1mph 4°C 4°C
8/12/19 22:50 EGOM 082250Z AUTO 26018KT 9999 FEW011/// BKN016/// 04/04 Q0981 REDZ W (260°) 20.7mph 4°C 4°C
8/12/19 21:50 EGOM 082150Z AUTO 25018KT 7000 -DZ BKN004/// SCT032/// 04/04 Q0981 -DZ WSW (250°) 20.7mph 4°C 4°C
8/12/19 20:50 EGOM 082050Z AUTO 25023KT 3000 -RA BKN004/// SCT011/// 04/04 Q0980 -RA WSW (250°) 26.5mph 4°C 4°C
8/12/19 19:50 EGOM 081950Z AUTO 25019G29KT 4800 -RA BKN006/// BKN015/// 04/04 Q0980 -RA WSW (250°) 21.9mph 33.4mph 4°C 4°C
8/12/19 18:50 EGOM 081850Z AUTO 23022G33KT 9999 -RA BKN005/// BKN016/// 04/04 Q0980 -RA SW (230°) 25.3mph 38.0mph 4°C 4°C
8/12/19 17:50 EGOM 081750Z AUTO 24021G31KT 5000 RA BKN008/// 04/03 Q0981 RA WSW (240°) 24.2mph 35.7mph 4°C 3°C
8/12/19 16:50 EGOM 081650Z AUTO 24024G40KT 5000 RA BKN012/// 04/03 Q0982 RA WSW (240°) 27.6mph 46.0mph 4°C 3°C
8/12/19 15:50 EGOM 081550Z AUTO 24020G31KT 9999 BKN013/// SCT036/// 04/03 Q0982 RERA WSW (240°) 23.0mph 35.7mph 4°C 3°C
8/12/19 14:50 EGOM 081450Z AUTO 25021G33KT 9999 -RA SCT015/// SCT022/// 04/03 Q0983 -RA WSW (250°) 24.2mph 38.0mph 4°C 3°C
8/12/19 13:50 EGOM 081350Z AUTO 25022KT 9999 -DZ BKN019/// 04/03 Q0984 -DZ WSW (250°) 25.3mph 4°C 3°C
8/12/19 12:50 EGOM 081250Z AUTO 24025G38KT 9999 RA BKN014/// SCT028/// 04/03 Q0985 RA WSW (240°) 28.8mph 43.7mph 4°C 3°C
8/12/19 11:50 EGOM 081150Z AUTO 25023KT 9999 FEW017/// BKN026/// 05/03 Q0985 RERA WSW (250°) 26.5mph 5°C 3°C
8/12/19 10:50 EGOM 081050Z AUTO 25023G35KT 7000 RA SCT016/// SCT021/// BKN030/// 05/03 Q0986 RA WSW (250°) 26.5mph 40.3mph 5°C 3°C
8/12/19 09:50 EGOM 080950Z AUTO 25024G34KT 9999 SCT020/// BKN029/// 05/03 Q0986 WSW (250°) 27.6mph 39.1mph 5°C 3°C
8/12/19 08:50 EGOM 080850Z AUTO 24024KT 9999 FEW016/// SCT021/// BKN031/// 05/03 Q0986 RERA WSW (240°) 27.6mph 5°C 3°C
8/12/19 07:50 EGOM 080750Z AUTO 25026G36KT 9999 SCT022/// SCT029/// BKN038/// 05/03 Q0987 RERA WSW (250°) 29.9mph 41.4mph 5°C 3°C
8/12/19 06:50 EGOM 080650Z AUTO 24023G37KT 9999 -DZ FEW013/// SCT023/// 05/04 Q0987 -DZ WSW (240°) 26.5mph 42.6mph 5°C 4°C
8/12/19 05:50 EGOM 080550Z AUTO 25021G33KT 9999 FEW026/// SCT036/// 05/04 Q0986 WSW (250°) 24.2mph 38.0mph 5°C 4°C
8/12/19 04:50 EGOM 080450Z AUTO 25022KT 9999 FEW011/// BKN026/// 06/05 Q0986 RERA WSW (250°) 25.3mph 6°C 5°C
8/12/19 03:50 EGOM 080350Z AUTO 25021G31KT 9000 -DZ SCT006/// BKN012/// 07/06 Q0985 -DZ WSW (250°) 24.2mph 35.7mph 7°C 6°C
8/12/19 02:50 EGOM 080250Z AUTO 25021KT 9999 SCT005/// SCT013/// BKN016/// 07/07 Q0985 RERA WSW (250°) 24.2mph 7°C 7°C
8/12/19 01:50 EGOM 080150Z AUTO 25025G36KT 9999 BKN002/// BKN040/// 09/09 Q0985 RERA WSW (250°) 28.8mph 41.4mph 9°C 9°C
8/12/19 00:50 EGOM 080050Z AUTO 22021KT 3000 RA BKN003/// 09/08 Q0985 RA SW (220°) 24.2mph 9°C 8°C
7/12/19 23:50 EGOM 072350Z AUTO 22026G36KT 2500 RA FEW010/// BKN013/// 08/08 Q0987 RA SW (220°) 29.9mph 41.4mph 8°C 8°C
7/12/19 22:50 EGOM 072250Z AUTO 22026G36KT 2000 RA FEW006/// BKN020/// 08/07 Q0988 RA SW (220°) 29.9mph 41.4mph 8°C 7°C
7/12/19 21:50 EGOM 072150Z AUTO 22025G36KT 2900 RA SCT010/// BKN031/// 08/08 Q0989 RA SW (220°) 28.8mph 41.4mph 8°C 8°C
7/12/19 20:50 EGOM 072050Z AUTO 22021KT 9999 BKN010/// BKN017/// 08/07 Q0993 SW (220°) 24.2mph 8°C 7°C
7/12/19 19:50 EGOM 071950Z AUTO 21021KT 9999 BKN006/// 08/08 Q0995 SSW (210°) 24.2mph 8°C 8°C
7/12/19 18:50 EGOM 071850Z AUTO 22018KT 9999 BKN005/// 09/08 Q0997 SW (220°) 20.7mph 9°C 8°C
7/12/19 17:50 EGOM 071750Z AUTO 23017KT 9999 OVC002/// 09/09 Q0998 RERA SW (230°) 19.6mph 9°C 9°C
7/12/19 16:50 EGOM 071650Z AUTO 24014KT 9999 OVC002/// 08/08 Q1000 RERA WSW (240°) 16.1mph 8°C 8°C
7/12/19 15:50 EGOM 071550Z AUTO 24011KT 5000 RA OVC002/// 07/07 Q1001 RA WSW (240°) 12.7mph 7°C 7°C
7/12/19 14:50 EGOM 071450Z AUTO 23014KT 5000 -DZ OVC002/// 07/07 Q1002 -DZ SW (230°) 16.1mph 7°C 7°C
7/12/19 13:50 EGOM 071350Z AUTO 23015KT 5000 -DZ BKN002/// 07/07 Q1003 -DZ SW (230°) 17.3mph 7°C 7°C
7/12/19 12:50 EGOM 071250Z AUTO 24017KT 9999 OVC004/// 07/07 Q1004 WSW (240°) 19.6mph 7°C 7°C